Flight Track Log - Related Links

Times and Time Zones

All times are in EDT time to prevent confusion due to time zone crossing. See the EMD27 flight status page for this flight to view local times or setup timezone preferences in your user account.

Time Position Orientation Groundspeed Altitude Reporting Facility
EDT Latitude Longitude Course Direction KTS MPH feet Rate Location/Type
Tue 01:45:33 AM 37.3089 -80.0172 244° Southwest 134 154 2,000  Level Indianapolis Center
Tue 01:46:33 AM 37.2897 -80.0672 244° Southwest 151 174 3,200 1,350 Climbing Indianapolis Center
Tue 01:47:33 AM 37.2786 -80.1197 255° West 158 182 4,700 1,438 Climbing Indianapolis Center
Tue 01:48:34 AM 37.2778 -80.1706 269° West 154 177 6,100 1,339 Climbing Indianapolis Center
Tue 01:49:34 AM 37.2725 -80.2200 262° West 150 173 7,400 1,400 Climbing Indianapolis Center
Tue 01:50:34 AM 37.2664 -80.2781 262° West 145 167 8,900 1,360 Climbing Indianapolis Center
Tue 01:50:49 AM 37.2656 -80.2919 266° West 166 191 9,100 933 Climbing Washington Center
Tue 01:51:19 AM 37.2592 -80.3178 253° West 164 189 9,600 1,333 Climbing Atlanta Center
Tue 01:52:19 AM 37.2547 -80.3728 264° West 153 176 11,100 1,150 Climbing Atlanta Center
Tue 01:53:19 AM 37.2481 -80.4306 262° West 153 176 11,900 450 Climbing Atlanta Center
Tue 01:54:19 AM 37.2417 -80.4986 263° West 184 212 12,000 50 Climbing Atlanta Center
Tue 01:55:19 AM 37.2336 -80.5822 263° West 216 249 12,000  Level Atlanta Center
Tue 01:56:19 AM 37.2253 -80.6531 262° West 231 266 12,000  Level Atlanta Center
Tue 01:57:19 AM 37.2169 -80.7342 263° West 236 272 12,000  Level Atlanta Center
Tue 01:58:19 AM 37.2086 -80.8103 262° West 236 272 12,000  Level Atlanta Center
Tue 01:59:19 AM 37.2003 -80.8886 262° West 236 272 12,000  Level Atlanta Center
Tue 01:59:36 AM 37.1986 -80.9117 265° West 225 259 12,000  Level Indianapolis Center
Tue 02:01:37 AM 37.1825 -81.0639 262° West 224 258 12,000  Level Indianapolis Center
Tue 02:02:37 AM 37.1753 -81.1400 263° West 225 259 12,000  Level Indianapolis Center
Tue 02:03:37 AM 37.1664 -81.2175 262° West 224 258 12,000  Level Indianapolis Center
Tue 02:05:00 AM 37.1666 -81.3178 270° West  Level FlightAware Approximate
Tue 02:07:38 AM 37.1294 -81.5431 261° West 225 259 12,000  Level Indianapolis Center
Tue 02:08:38 AM 37.1203 -81.6222 262° West 229 264 12,000  Level Indianapolis Center
Tue 02:09:39 AM 37.1111 -81.7006 262° West 228 262 12,000  Level Indianapolis Center
Tue 02:10:39 AM 37.1025 -81.7783 262° West 226 260 12,000  Level Indianapolis Center
Tue 02:11:39 AM 37.0947 -81.8422 261° West 225 259 12,000  Level Indianapolis Center
Tue 02:12:00 AM 37.1063 -81.8204 261° West  Level FlightAware Approximate
Tue 02:12:39 AM 37.0850 -81.9328 262° West 224 258 12,000  Level Indianapolis Center
Tue 02:13:39 AM 37.0747 -82.0100 261° West 224 258 12,000  Level Indianapolis Center
Tue 02:14:40 AM 37.0658 -82.0875 262° West 225 259 12,000  Level Indianapolis Center
Tue 02:15:40 AM 37.0569 -82.1656 262° West 226 260 12,000  Level Indianapolis Center
Tue 02:16:40 AM 37.0464 -82.2442 260° West 229 264 12,000  Level Indianapolis Center
Tue 02:17:40 AM 37.0381 -82.3222 262° West 227 261 12,000  Level Indianapolis Center
Tue 02:18:40 AM 37.0278 -82.4006 261° West 229 264 12,000  Level Indianapolis Center
Tue 02:19:41 AM 37.0192 -82.4781 262° West 226 260 12,000  Level Indianapolis Center
Tue 02:20:41 AM 37.0086 -82.5558 260° West 227 261 12,000  Level Indianapolis Center
Tue 02:21:41 AM 37.0000 -82.6336 262° West 227 261 12,000  Level Indianapolis Center
Tue 02:22:41 AM 36.9894 -82.7122 260° West 227 261 12,000  Level Indianapolis Center
Tue 02:23:41 AM 36.9806 -82.7908 262° West 230 265 12,000  Level Indianapolis Center
Tue 02:24:42 AM 36.9703 -82.8675 260° West 228 262 12,000  Level Indianapolis Center
Tue 02:25:42 AM 36.9619 -82.9450 262° West 231 266 12,000  Level Indianapolis Center
Tue 02:26:42 AM 36.9511 -83.0217 260° West 228 262 12,000  Level Indianapolis Center
Tue 02:27:42 AM 36.9414 -83.0989 261° West 225 259 12,000  Level Indianapolis Center
Tue 02:28:42 AM 36.9308 -83.1750 260° West 225 259 12,000  Level Indianapolis Center
Tue 02:29:43 AM 36.9217 -83.2528 262° West 225 259 12,000  Level Indianapolis Center
Tue 02:30:43 AM 36.9108 -83.3283 260° West 222 255 12,000 -400 Level Indianapolis Center
Tue 02:31:43 AM 36.9011 -83.4092 261° West 235 270 11,200 -1,050 Descending Indianapolis Center
Tue 02:32:43 AM 36.8886 -83.4975 260° West 257 296 9,900 -1,300 Descending Indianapolis Center
Tue 02:33:43 AM 36.8781 -83.5853 261° West 257 296 8,600 -1,350 Descending Indianapolis Center
Tue 02:34:43 AM 36.8667 -83.6719 261° West 253 291 7,200 -1,240 Descending Indianapolis Center
Tue 02:35:44 AM 36.8561 -83.7497 260° West 235 270 6,100 -942 Descending Indianapolis Center
Tue 02:36:44 AM 36.8464 -83.8236 261° West 220 253 5,300 -950 Descending Indianapolis Center
Tue 02:37:44 AM 36.8358 -83.9003 260° West 221 254 4,200 -650 Descending Indianapolis Center
Tue 02:38:44 AM 36.8256 -83.9736 260° West 219 252 4,000 -200 Descending Indianapolis Center

Login

Don't have an account? Register now (free) for customized features, flight alerts, and more!